Close

Questo sito utlizza cookie. Può leggere come li usiamo nella nostra Privacy Policy.

Ronchi Tower
Ronchi Tower

From Facebook

METAR & TAF

2019/10/20 16:20 LIPQ 201620Z 23004KT 190V250 9999 FEW035 20/17 Q1019
2019/10/20 12:21 TAF LIPQ 201100Z 2012/2112 VRB05KT 9999 SCT040
2019/10/20 16:20 LIPZ 201620Z 13005KT CAVOK 19/16 Q1018 NOSIG
2019/10/20 12:21 TAF LIPZ 201100Z 2012/2118 13010KT CAVOK BECMG 2016/2018 04007KT BECMG 2018/2021 4000 BR TEMPO 2104/2108 1200 BCFG BKN001 BECMG 2108/2110 15010KT BECMG 2116/2118 VRB05KT
2019/10/20 16:20 LIPH 201620Z 11004KT CAVOK 19/15 Q1018
2019/10/20 12:21 TAF LIPH 201100Z 2012/2112 VRB05KT 8000 SCT020 BECMG 2021/2023 4000 BR TEMPO 2100/2007 1200 BCFG BKN002
2019/10/20 16:20 LIRF 201620Z 16006KT 9999 SCT030 22/18 Q1018 NOSIG
2019/10/20 12:49 TAF COR LIRF 201240Z 2012/2118 14010KT 9999 BKN025 TEMPO 2012/2016 14015G25KT BECMG 2019/2021 VRB06KT BECMG 2108/2110 16010KT
2019/10/11 03:20 LIML 110320Z 02007KT CAVOK 13/10 Q1022 NOSIG
2019/07/26 18:21 TAF LIML 261700Z 2618/2718 VRB05KT 9999 SCT050 TEMPO 2709/2718 3000 TSRA SCT010CB BKN040
2019/10/20 16:20 EDDM 201620Z 04003KT 350V070 CAVOK 16/13 Q1009 NOSIG
2019/10/20 12:27 TAF EDDM 201100Z 2012/2118 07006KT CAVOK BECMG 2015/2017 VRB03KT PROB30 TEMPO 2103/2107 1200 BCFG SCT001 BKN002 BECMG 2107/2109 30005KT
2019/10/20 16:20 EGSS 201620Z AUTO 35005KT 9999 SCT017 BKN023 OVC040 10/08 Q1012
2019/10/20 12:09 TAF EGSS 201053Z 2012/2118 01009KT 9999 FEW015 SCT025 PROB30 TEMPO 2012/2017 BKN014 PROB30 TEMPO 2017/2102 BKN009 PROB40 TEMPO 2102/2110 4000 RA -RADZ BKN007 PROB30 TEMPO 2110/2113 BKN010
2019/10/20 16:20 EDDF 201620Z 05006KT CAVOK 16/14 Q1008 NOSIG
2019/10/20 12:28 TAF EDDF 201100Z 2012/2118 05006KT 9999 FEW010 PROB30 TEMPO 2012/2017 13012KT SHRA BKN065CB BECMG 2022/2024 21004KT TEMPO 2022/2108 3000 BR PROB30 TEMPO 2103/2108 0500 FG BKN001 BECMG 2109/2111 21009KT

FlightRadar24

Radar Meteo

Traffic data

Agosto 2018

Passeggeri: 63892-12,9% (rank: 23)
Nazionali 34490 -19,8%
Internazionali 29193 -3,0%

Movimenti: 1307+11,7% (rank: 24)
Tot commerciale 556 -7,2%
Aviazione generale 751 +31,5%

Cargo (tons): 20,6+62,5% (rank: 21)

Gennaio - Agosto 2018

Passeggeri: 507438-3,5% (rank: 23)
Nazionali 322655 -4,9%
Internazionali 182927 -0,7%

Movimenti: 10366-4,25 (rank: 22)
Tot commerciale 5328 -11,0%
Aviazione generale 5038 +4,2%

Cargo (tons): 299,2+61,9% (rank: 20)

Photo

Douglas DC-6B
Douglas DC-6B
Distinct views: 12
Douglas DC-6B
Douglas DC-6B
Distinct views: 54
Douglas DC-6B
Douglas DC-6B
Distinct views: 192
ATR ATR-72
ATR ATR-72
Total views: 2540